sensor_id;sensor_type;location;lat;lon;timestamp;pressure;altitude;pressure_sealevel;temperature;humidity
13952;BME280;39535;52.192;9.886;2023-02-08T00:00:56;103237.50;;;-1.46;81.30
13952;BME280;39535;52.192;9.886;2023-02-08T00:03:23;103245.81;;;-1.49;81.15
13952;BME280;39535;52.192;9.886;2023-02-08T00:05:49;103238.81;;;-1.51;81.36
13952;BME280;39535;52.192;9.886;2023-02-08T00:08:16;103232.38;;;-1.46;81.95
13952;BME280;39535;52.192;9.886;2023-02-08T00:10:43;103234.47;;;-1.52;82.32
13952;BME280;39535;52.192;9.886;2023-02-08T00:13:09;103222.56;;;-1.52;81.72
13952;BME280;39535;52.192;9.886;2023-02-08T00:15:40;103224.56;;;-1.48;81.49
13952;BME280;39535;52.192;9.886;2023-02-08T00:18:08;103217.19;;;-1.55;82.00
13952;BME280;39535;52.192;9.886;2023-02-08T00:20:36;103208.63;;;-1.55;82.31
13952;BME280;39535;52.192;9.886;2023-02-08T00:23:03;103209.75;;;-1.52;81.40
13952;BME280;39535;52.192;9.886;2023-02-08T00:25:29;103215.41;;;-1.56;81.47
13952;BME280;39535;52.192;9.886;2023-02-08T00:27:56;103204.94;;;-1.59;82.24
13952;BME280;39535;52.192;9.886;2023-02-08T00:30:22;103199.03;;;-1.58;82.18
13952;BME280;39535;52.192;9.886;2023-02-08T00:32:49;103200.16;;;-1.54;81.67
13952;BME280;39535;52.192;9.886;2023-02-08T00:35:17;103208.63;;;-1.55;81.34
13952;BME280;39535;52.192;9.886;2023-02-08T00:37:43;103218.19;;;-1.53;81.31
13952;BME280;39535;52.192;9.886;2023-02-08T00:40:10;103218.75;;;-1.57;81.31
13952;BME280;39535;52.192;9.886;2023-02-08T00:42:37;103220.97;;;-1.62;81.28
13952;BME280;39535;52.192;9.886;2023-02-08T00:45:04;103229.41;;;-1.63;80.96
13952;BME280;39535;52.192;9.886;2023-02-08T00:47:30;103220.72;;;-1.65;81.00
13952;BME280;39535;52.192;9.886;2023-02-08T00:49:57;103224.06;;;-1.66;81.25
13952;BME280;39535;52.192;9.886;2023-02-08T00:52:26;103226.53;;;-1.55;80.73
13952;BME280;39535;52.192;9.886;2023-02-08T00:54:53;103230.66;;;-1.57;80.96
13952;BME280;39535;52.192;9.886;2023-02-08T00:57:19;103232.63;;;-1.65;80.76
13952;BME280;39535;52.192;9.886;2023-02-08T00:59:45;103231.75;;;-1.66;80.94
13952;BME280;39535;52.192;9.886;2023-02-08T01:02:12;103237.97;;;-1.74;80.94
13952;BME280;39535;52.192;9.886;2023-02-08T01:04:38;103241.53;;;-1.72;80.94
13952;BME280;39535;52.192;9.886;2023-02-08T01:07:05;103237.75;;;-1.65;80.33
13952;BME280;39535;52.192;9.886;2023-02-08T01:09:33;103261.34;;;-1.69;80.08
13952;BME280;39535;52.192;9.886;2023-02-08T01:12:00;103260.69;;;-1.67;80.05
13952;BME280;39535;52.192;9.886;2023-02-08T01:14:26;103268.38;;;-1.67;79.95
13952;BME280;39535;52.192;9.886;2023-02-08T01:16:53;103288.50;;;-1.71;79.83
13952;BME280;39535;52.192;9.886;2023-02-08T01:19:19;103295.19;;;-1.73;79.85
13952;BME280;39535;52.192;9.886;2023-02-08T01:21:46;103294.44;;;-1.83;80.19
13952;BME280;39535;52.192;9.886;2023-02-08T01:24:13;103281.56;;;-1.84;80.77
13952;BME280;39535;52.192;9.886;2023-02-08T01:26:41;103274.09;;;-1.81;80.72
13952;BME280;39535;52.192;9.886;2023-02-08T01:29:08;103275.06;;;-1.91;80.99
13952;BME280;39535;52.192;9.886;2023-02-08T01:31:36;103252.47;;;-1.85;81.31
13952;BME280;39535;52.192;9.886;2023-02-08T01:34:04;103253.22;;;-1.97;81.30
13952;BME280;39535;52.192;9.886;2023-02-08T01:36:32;103238.94;;;-2.06;81.38
13952;BME280;39535;52.192;9.886;2023-02-08T01:38:59;103220.00;;;-2.08;81.58
13952;BME280;39535;52.192;9.886;2023-02-08T01:41:28;103216.72;;;-2.17;81.99
13952;BME280;39535;52.192;9.886;2023-02-08T01:44:06;103195.53;;;-2.26;82.51
13952;BME280;39535;52.192;9.886;2023-02-08T01:46:34;103179.97;;;-2.29;82.49
13952;BME280;39535;52.192;9.886;2023-02-08T01:49:04;103168.25;;;-2.37;82.96
13952;BME280;39535;52.192;9.886;2023-02-08T01:51:33;103158.00;;;-2.37;83.62
13952;BME280;39535;52.192;9.886;2023-02-08T01:54:02;103145.44;;;-2.34;83.73
13952;BME280;39535;52.192;9.886;2023-02-08T01:56:32;103131.56;;;-2.26;83.26
13952;BME280;39535;52.192;9.886;2023-02-08T01:59:04;103141.94;;;-2.25;83.06
13952;BME280;39535;52.192;9.886;2023-02-08T02:01:31;103137.13;;;-2.10;82.91
13952;BME280;39535;52.192;9.886;2023-02-08T02:03:59;103142.31;;;-2.08;82.63
13952;BME280;39535;52.192;9.886;2023-02-08T02:06:29;103146.00;;;-2.05;82.03
13952;BME280;39535;52.192;9.886;2023-02-08T02:09:04;103156.78;;;-2.09;81.66
13952;BME280;39535;52.192;9.886;2023-02-08T02:11:32;103170.91;;;-2.14;81.69
13952;BME280;39535;52.192;9.886;2023-02-08T02:13:59;103170.13;;;-2.13;81.43
13952;BME280;39535;52.192;9.886;2023-02-08T02:16:28;103188.16;;;-2.11;81.09
13952;BME280;39535;52.192;9.886;2023-02-08T02:18:54;103191.44;;;-2.02;81.08
13952;BME280;39535;52.192;9.886;2023-02-08T02:21:31;103203.91;;;-1.95;80.62
13952;BME280;39535;52.192;9.886;2023-02-08T02:24:22;103229.84;;;-1.90;79.57
13952;BME280;39535;52.192;9.886;2023-02-08T02:27:25;103250.72;;;-1.86;78.81
13952;BME280;39535;52.192;9.886;2023-02-08T02:33:31;103313.69;;;-1.88;77.65
13952;BME280;39535;52.192;9.886;2023-02-08T02:36:04;103333.53;;;-1.85;77.38
13952;BME280;39535;52.192;9.886;2023-02-08T02:38:43;103348.00;;;-1.86;77.17
13952;BME280;39535;52.192;9.886;2023-02-08T02:41:19;103370.66;;;-2.23;74.46
13952;BME280;39535;52.192;9.886;2023-02-08T02:44:04;103410.94;;;-2.30;76.28
13952;BME280;39535;52.192;9.886;2023-02-08T02:46:38;103389.72;;;-2.29;77.55
13952;BME280;39535;52.192;9.886;2023-02-08T02:49:12;103367.56;;;-2.18;78.24
13952;BME280;39535;52.192;9.886;2023-02-08T02:51:46;103339.16;;;-2.11;79.00
13952;BME280;39535;52.192;9.886;2023-02-08T02:54:17;103310.88;;;-2.13;79.21
13952;BME280;39535;52.192;9.886;2023-02-08T02:56:47;103296.66;;;-2.09;79.68
13952;BME280;39535;52.192;9.886;2023-02-08T02:59:14;103282.66;;;-2.03;79.58
13952;BME280;39535;52.192;9.886;2023-02-08T03:01:43;103275.38;;;-1.98;79.47
13952;BME280;39535;52.192;9.886;2023-02-08T03:04:16;103271.88;;;-1.98;79.41
13952;BME280;39535;52.192;9.886;2023-02-08T03:06:55;103275.59;;;-1.95;79.31
13952;BME280;39535;52.192;9.886;2023-02-08T03:09:34;103287.91;;;-2.01;78.92
13952;BME280;39535;52.192;9.886;2023-02-08T03:12:16;103279.88;;;-2.06;79.30
13952;BME280;39535;52.192;9.886;2023-02-08T03:14:50;103281.97;;;-2.12;79.50
13952;BME280;39535;52.192;9.886;2023-02-08T03:17:38;103267.53;;;-2.22;79.09
13952;BME280;39535;52.192;9.886;2023-02-08T03:20:13;103281.22;;;-2.21;79.32
13952;BME280;39535;52.192;9.886;2023-02-08T03:22:44;103280.34;;;-2.22;79.45
13952;BME280;39535;52.192;9.886;2023-02-08T03:25:20;103280.56;;;-2.18;79.67
13952;BME280;39535;52.192;9.886;2023-02-08T03:27:54;103267.91;;;-2.17;79.73
13952;BME280;39535;52.192;9.886;2023-02-08T03:30:31;103263.66;;;-2.16;79.47
13952;BME280;39535;52.192;9.886;2023-02-08T03:33:02;103259.75;;;-2.23;79.64
13952;BME280;39535;52.192;9.886;2023-02-08T03:35:36;103254.63;;;-2.23;79.44
13952;BME280;39535;52.192;9.886;2023-02-08T03:38:08;103251.47;;;-2.31;80.18
13952;BME280;39535;52.192;9.886;2023-02-08T03:40:38;103243.03;;;-2.30;79.93
13952;BME280;39535;52.192;9.886;2023-02-08T03:43:07;103230.25;;;-2.30;79.88
13952;BME280;39535;52.192;9.886;2023-02-08T03:45:39;103223.72;;;-2.36;80.40
13952;BME280;39535;52.192;9.886;2023-02-08T03:48:10;103207.63;;;-2.35;80.40
13952;BME280;39535;52.192;9.886;2023-02-08T03:50:42;103199.28;;;-2.33;80.36
13952;BME280;39535;52.192;9.886;2023-02-08T03:53:12;103195.25;;;-2.41;80.92
13952;BME280;39535;52.192;9.886;2023-02-08T03:55:40;103179.78;;;-2.43;80.87
13952;BME280;39535;52.192;9.886;2023-02-08T03:58:15;103178.22;;;-2.41;80.99
13952;BME280;39535;52.192;9.886;2023-02-08T04:00:47;103164.28;;;-2.44;81.16
13952;BME280;39535;52.192;9.886;2023-02-08T04:03:19;103164.06;;;-2.47;81.49
13952;BME280;39535;52.192;9.886;2023-02-08T04:05:49;103156.03;;;-2.52;81.21
13952;BME280;39535;52.192;9.886;2023-02-08T04:08:16;103147.00;;;-2.58;81.60
13952;BME280;39535;52.192;9.886;2023-02-08T04:10:42;103138.91;;;-2.53;81.62
13952;BME280;39535;52.192;9.886;2023-02-08T04:13:09;103131.72;;;-2.47;81.60
13952;BME280;39535;52.192;9.886;2023-02-08T04:15:35;103151.16;;;-2.49;80.34
13952;BME280;39535;52.192;9.886;2023-02-08T04:18:01;103194.16;;;-2.55;77.28
13952;BME280;39535;52.192;9.886;2023-02-08T04:20:28;103268.66;;;-2.50;75.58
13952;BME280;39535;52.192;9.886;2023-02-08T04:22:56;103303.56;;;-2.41;76.12
13952;BME280;39535;52.192;9.886;2023-02-08T04:25:22;103317.84;;;-2.32;75.98
13952;BME280;39535;52.192;9.886;2023-02-08T04:27:49;103344.47;;;-2.41;75.15
13952;BME280;39535;52.192;9.886;2023-02-08T04:30:15;103356.75;;;-2.36;75.50
13952;BME280;39535;52.192;9.886;2023-02-08T04:32:41;103363.91;;;-2.43;76.66
13952;BME280;39535;52.192;9.886;2023-02-08T04:35:08;103361.75;;;-2.48;77.04
13952;BME280;39535;52.192;9.886;2023-02-08T04:37:35;103338.88;;;-2.47;77.20
13952;BME280;39535;52.192;9.886;2023-02-08T04:40:03;103343.31;;;-2.44;77.05
13952;BME280;39535;52.192;9.886;2023-02-08T04:42:29;103346.50;;;-2.36;77.32
13952;BME280;39535;52.192;9.886;2023-02-08T04:44:56;103348.19;;;-2.37;76.94
13952;BME280;39535;52.192;9.886;2023-02-08T04:47:22;103367.13;;;-2.66;74.40
13952;BME280;39535;52.192;9.886;2023-02-08T04:49:48;103419.81;;;-2.98;74.76
13952;BME280;39535;52.192;9.886;2023-02-08T04:52:15;103424.63;;;-3.22;77.06
13952;BME280;39535;52.192;9.886;2023-02-08T04:54:41;103400.63;;;-3.14;77.63
13952;BME280;39535;52.192;9.886;2023-02-08T04:57:11;103375.81;;;-3.25;79.52
13952;BME280;39535;52.192;9.886;2023-02-08T04:59:37;103313.03;;;-3.13;80.45
13952;BME280;39535;52.192;9.886;2023-02-08T05:02:04;103284.13;;;-2.91;80.50
13952;BME280;39535;52.192;9.886;2023-02-08T05:04:31;103266.88;;;-3.04;80.29
13952;BME280;39535;52.192;9.886;2023-02-08T05:06:58;103258.19;;;-3.06;80.59
13952;BME280;39535;52.192;9.886;2023-02-08T05:09:24;103244.28;;;-3.20;80.99
13952;BME280;39535;52.192;9.886;2023-02-08T05:11:50;103227.56;;;-3.16;81.34
13952;BME280;39535;52.192;9.886;2023-02-08T05:14:18;103211.09;;;-3.20;81.81
13952;BME280;39535;52.192;9.886;2023-02-08T05:16:45;103197.78;;;-3.16;81.40
13952;BME280;39535;52.192;9.886;2023-02-08T05:19:11;103188.56;;;-3.04;81.43
13952;BME280;39535;52.192;9.886;2023-02-08T05:21:38;103196.13;;;-3.05;80.54
13952;BME280;39535;52.192;9.886;2023-02-08T05:24:04;103205.94;;;-2.89;80.77
13952;BME280;39535;52.192;9.886;2023-02-08T05:26:32;103212.91;;;-2.76;80.46
13952;BME280;39535;52.192;9.886;2023-02-08T05:28:58;103216.44;;;-2.64;80.16
13952;BME280;39535;52.192;9.886;2023-02-08T05:31:26;103230.91;;;-2.75;79.25
13952;BME280;39535;52.192;9.886;2023-02-08T05:33:52;103251.03;;;-3.00;79.93
13952;BME280;39535;52.192;9.886;2023-02-08T05:36:19;103241.06;;;-2.97;80.99
13952;BME280;39535;52.192;9.886;2023-02-08T05:38:47;103226.88;;;-2.83;80.88
13952;BME280;39535;52.192;9.886;2023-02-08T05:41:14;103212.53;;;-2.81;81.03
13952;BME280;39535;52.192;9.886;2023-02-08T05:43:40;103213.91;;;-2.74;80.71
13952;BME280;39535;52.192;9.886;2023-02-08T05:46:07;103208.41;;;-2.69;80.91
13952;BME280;39535;52.192;9.886;2023-02-08T05:48:35;103199.31;;;-2.65;81.16
13952;BME280;39535;52.192;9.886;2023-02-08T05:51:01;103198.03;;;-2.70;81.06
13952;BME280;39535;52.192;9.886;2023-02-08T05:53:28;103194.47;;;-2.72;81.11
13952;BME280;39535;52.192;9.886;2023-02-08T05:55:56;103202.75;;;-2.65;81.22
13952;BME280;39535;52.192;9.886;2023-02-08T05:58:22;103201.69;;;-2.56;80.86
13952;BME280;39535;52.192;9.886;2023-02-08T06:00:49;103205.31;;;-2.65;81.01
13952;BME280;39535;52.192;9.886;2023-02-08T06:03:15;103209.31;;;-2.78;80.98
13952;BME280;39535;52.192;9.886;2023-02-08T06:05:43;103212.81;;;-2.88;81.51
13952;BME280;39535;52.192;9.886;2023-02-08T06:08:10;103209.84;;;-2.83;81.78
13952;BME280;39535;52.192;9.886;2023-02-08T06:10:36;103199.84;;;-2.80;81.22
13952;BME280;39535;52.192;9.886;2023-02-08T06:13:03;103212.28;;;-2.84;80.70
13952;BME280;39535;52.192;9.886;2023-02-08T06:15:30;103223.56;;;-2.92;80.64
13952;BME280;39535;52.192;9.886;2023-02-08T06:17:56;103224.44;;;-2.92;80.57
13952;BME280;39535;52.192;9.886;2023-02-08T06:20:23;103231.47;;;-2.89;80.46
13952;BME280;39535;52.192;9.886;2023-02-08T06:22:51;103245.03;;;-3.01;80.00
13952;BME280;39535;52.192;9.886;2023-02-08T06:25:17;103253.94;;;-2.95;79.87
13952;BME280;39535;52.192;9.886;2023-02-08T06:27:43;103251.91;;;-3.00;79.82
13952;BME280;39535;52.192;9.886;2023-02-08T06:30:12;103259.88;;;-3.07;79.95
13952;BME280;39535;52.192;9.886;2023-02-08T06:32:38;103267.28;;;-3.20;80.05
13952;BME280;39535;52.192;9.886;2023-02-08T06:35:05;103266.91;;;-3.14;80.04
13952;BME280;39535;52.192;9.886;2023-02-08T06:37:32;103263.56;;;-3.13;80.00
13952;BME280;39535;52.192;9.886;2023-02-08T06:39:59;103260.50;;;-3.09;80.00
13952;BME280;39535;52.192;9.886;2023-02-08T06:42:26;103260.88;;;-3.05;79.70
13952;BME280;39535;52.192;9.886;2023-02-08T06:44:52;103259.38;;;-3.13;79.87
13952;BME280;39535;52.192;9.886;2023-02-08T06:47:20;103257.34;;;-3.17;79.90
13952;BME280;39535;52.192;9.886;2023-02-08T06:49:46;103245.03;;;-3.21;80.86
13952;BME280;39535;52.192;9.886;2023-02-08T06:52:12;103240.84;;;-3.21;80.84
13952;BME280;39535;52.192;9.886;2023-02-08T06:54:39;103231.25;;;-3.23;81.54
13952;BME280;39535;52.192;9.886;2023-02-08T06:57:07;103231.66;;;-3.18;81.02
13952;BME280;39535;52.192;9.886;2023-02-08T06:59:33;103231.38;;;-3.11;80.58
13952;BME280;39535;52.192;9.886;2023-02-08T07:02:00;103243.25;;;-3.12;79.66
13952;BME280;39535;52.192;9.886;2023-02-08T07:04:26;103247.72;;;-3.09;79.39
13952;BME280;39535;52.192;9.886;2023-02-08T07:06:52;103267.56;;;-3.17;78.84
13952;BME280;39535;52.192;9.886;2023-02-08T07:09:19;103277.13;;;-3.25;78.07
13952;BME280;39535;52.192;9.886;2023-02-08T07:11:45;103313.03;;;-3.13;76.92
13952;BME280;39535;52.192;9.886;2023-02-08T07:14:14;103326.81;;;-3.01;77.73
13952;BME280;39535;52.192;9.886;2023-02-08T07:16:41;103342.25;;;-2.89;77.12
13952;BME280;39535;52.192;9.886;2023-02-08T07:19:07;103361.81;;;-2.89;76.24
13952;BME280;39535;52.192;9.886;2023-02-08T07:21:34;103381.47;;;-2.88;77.68
13952;BME280;39535;52.192;9.886;2023-02-08T07:24:00;103368.84;;;-2.97;78.06
13952;BME280;39535;52.192;9.886;2023-02-08T07:26:26;103349.16;;;-2.98;78.78
13952;BME280;39535;52.192;9.886;2023-02-08T07:28:53;103332.16;;;-2.97;79.09
13952;BME280;39535;52.192;9.886;2023-02-08T07:31:21;103331.03;;;-2.91;78.84
13952;BME280;39535;52.192;9.886;2023-02-08T07:33:47;103336.25;;;-3.00;79.49
13952;BME280;39535;52.192;9.886;2023-02-08T07:36:14;103311.09;;;-2.95;79.58
13952;BME280;39535;52.192;9.886;2023-02-08T07:38:40;103297.53;;;-2.94;79.70
13952;BME280;39535;52.192;9.886;2023-02-08T07:41:08;103296.00;;;-2.92;79.63
13952;BME280;39535;52.192;9.886;2023-02-08T07:43:36;103282.97;;;-2.85;79.78
13952;BME280;39535;52.192;9.886;2023-02-08T07:46:06;103288.31;;;-2.92;78.14
13952;BME280;39535;52.192;9.886;2023-02-08T07:48:34;103305.44;;;-2.81;78.30
13952;BME280;39535;52.192;9.886;2023-02-08T07:51:00;103310.41;;;-2.72;77.99
13952;BME280;39535;52.192;9.886;2023-02-08T07:53:27;103313.97;;;-2.70;77.55
13952;BME280;39535;52.192;9.886;2023-02-08T07:55:54;103329.44;;;-2.68;76.46
13952;BME280;39535;52.192;9.886;2023-02-08T07:58:20;103346.19;;;-2.62;76.54
13952;BME280;39535;52.192;9.886;2023-02-08T08:00:46;103356.66;;;-2.58;76.16
13952;BME280;39535;52.192;9.886;2023-02-08T08:03:13;103369.94;;;-2.52;76.37
13952;BME280;39535;52.192;9.886;2023-02-08T08:05:41;103372.78;;;-2.49;76.36
13952;BME280;39535;52.192;9.886;2023-02-08T08:08:08;103377.72;;;-2.41;76.43
13952;BME280;39535;52.192;9.886;2023-02-08T08:10:35;103379.25;;;-2.43;76.95
13952;BME280;39535;52.192;9.886;2023-02-08T08:13:02;103372.34;;;-2.33;76.93
13952;BME280;39535;52.192;9.886;2023-02-08T08:15:29;103371.16;;;-2.27;76.94
13952;BME280;39535;52.192;9.886;2023-02-08T08:17:56;103365.00;;;-2.18;77.24
13952;BME280;39535;52.192;9.886;2023-02-08T08:20:23;103357.81;;;-2.12;77.63
13952;BME280;39535;52.192;9.886;2023-02-08T08:22:51;103353.47;;;-2.13;78.39
13952;BME280;39535;52.192;9.886;2023-02-08T08:25:18;103341.03;;;-2.09;78.06
13952;BME280;39535;52.192;9.886;2023-02-08T08:27:44;103332.88;;;-2.15;78.37
13952;BME280;39535;52.192;9.886;2023-02-08T08:30:13;103325.03;;;-2.06;78.28
13952;BME280;39535;52.192;9.886;2023-02-08T08:32:39;103327.19;;;-2.01;78.44
13952;BME280;39535;52.192;9.886;2023-02-08T08:35:07;103322.97;;;-2.00;78.27
13952;BME280;39535;52.192;9.886;2023-02-08T08:37:34;103317.34;;;-1.96;78.17
13952;BME280;39535;52.192;9.886;2023-02-08T08:40:03;103312.03;;;-1.87;78.39
13952;BME280;39535;52.192;9.886;2023-02-08T08:42:31;103308.59;;;-1.88;78.64
13952;BME280;39535;52.192;9.886;2023-02-08T08:44:57;103301.50;;;-1.80;78.56
13952;BME280;39535;52.192;9.886;2023-02-08T08:47:24;103311.34;;;-1.85;78.56
13952;BME280;39535;52.192;9.886;2023-02-08T08:49:50;103297.06;;;-1.71;81.02
13952;BME280;39535;52.192;9.886;2023-02-08T08:52:18;103208.06;;;-1.51;83.56
13952;BME280;39535;52.192;9.886;2023-02-08T08:54:44;103169.19;;;-1.57;81.86
13952;BME280;39535;52.192;9.886;2023-02-08T08:57:12;103141.94;;;-1.33;84.81
13952;BME280;39535;52.192;9.886;2023-02-08T08:59:38;103071.75;;;-1.24;85.59
13952;BME280;39535;52.192;9.886;2023-02-08T09:02:05;103083.88;;;-1.33;83.43
13952;BME280;39535;52.192;9.886;2023-02-08T09:04:32;103106.75;;;-1.36;82.32
13952;BME280;39535;52.192;9.886;2023-02-08T09:06:59;103120.13;;;-1.28;82.45
13952;BME280;39535;52.192;9.886;2023-02-08T09:09:25;103100.38;;;-1.17;84.24
13952;BME280;39535;52.192;9.886;2023-02-08T09:11:52;103046.88;;;-1.01;85.98
13952;BME280;39535;52.192;9.886;2023-02-08T09:14:19;103008.91;;;-0.82;86.95
13952;BME280;39535;52.192;9.886;2023-02-08T09:16:46;102960.75;;;-0.61;88.55
13952;BME280;39535;52.192;9.886;2023-02-08T09:19:13;102919.84;;;-0.46;89.17
13952;BME280;39535;52.192;9.886;2023-02-08T09:21:40;102952.38;;;-0.58;85.24
13952;BME280;39535;52.192;9.886;2023-02-08T09:24:07;103019.44;;;-0.65;83.80
13952;BME280;39535;52.192;9.886;2023-02-08T09:26:33;103016.25;;;-0.49;86.83
13952;BME280;39535;52.192;9.886;2023-02-08T09:29:00;102955.59;;;-0.22;89.22
13952;BME280;39535;52.192;9.886;2023-02-08T09:31:30;102902.91;;;-0.04;89.29
13952;BME280;39535;52.192;9.886;2023-02-08T09:33:59;102910.31;;;0.05;88.04
13952;BME280;39535;52.192;9.886;2023-02-08T09:36:28;102951.06;;;0.14;85.61
13952;BME280;39535;52.192;9.886;2023-02-08T09:38:58;102965.78;;;0.43;85.88
13952;BME280;39535;52.192;9.886;2023-02-08T09:41:37;103005.91;;;0.54;83.58
13952;BME280;39535;52.192;9.886;2023-02-08T09:44:14;103046.44;;;0.58;83.93
13952;BME280;39535;52.192;9.886;2023-02-08T09:46:49;103044.75;;;0.72;84.13
13952;BME280;39535;52.192;9.886;2023-02-08T09:49:22;103072.53;;;0.78;83.25
13952;BME280;39535;52.192;9.886;2023-02-08T09:51:52;103104.25;;;0.92;81.65
13952;BME280;39535;52.192;9.886;2023-02-08T09:54:26;103142.34;;;0.97;80.28
13952;BME280;39535;52.192;9.886;2023-02-08T09:56:54;103168.63;;;1.07;79.59
13952;BME280;39535;52.192;9.886;2023-02-08T09:59:24;103218.59;;;1.10;78.91
13952;BME280;39535;52.192;9.886;2023-02-08T10:01:55;103267.06;;;1.17;77.40
13952;BME280;39535;52.192;9.886;2023-02-08T10:04:29;103303.28;;;1.21;76.34
13952;BME280;39535;52.192;9.886;2023-02-08T10:06:58;103338.81;;;1.26;75.86
13952;BME280;39535;52.192;9.886;2023-02-08T10:09:26;103373.25;;;1.28;75.47
13952;BME280;39535;52.192;9.886;2023-02-08T10:12:03;103404.31;;;1.18;74.23
13952;BME280;39535;52.192;9.886;2023-02-08T10:14:39;103452.38;;;1.06;72.32
13952;BME280;39535;52.192;9.886;2023-02-08T10:17:28;103498.47;;;0.91;71.24
13952;BME280;39535;52.192;9.886;2023-02-08T10:20:05;103534.03;;;0.85;72.24
13952;BME280;39535;52.192;9.886;2023-02-08T10:22:42;103565.16;;;0.76;72.55
13952;BME280;39535;52.192;9.886;2023-02-08T10:25:20;103571.28;;;0.78;72.99
13952;BME280;39535;52.192;9.886;2023-02-08T10:28:01;103538.84;;;0.92;75.06
13952;BME280;39535;52.192;9.886;2023-02-08T10:30:40;103486.41;;;1.15;75.05
13952;BME280;39535;52.192;9.886;2023-02-08T10:33:17;103480.34;;;1.26;73.22
13952;BME280;39535;52.192;9.886;2023-02-08T10:35:48;103507.59;;;1.36;74.16
13952;BME280;39535;52.192;9.886;2023-02-08T10:38:22;103506.00;;;1.38;71.77
13952;BME280;39535;52.192;9.886;2023-02-08T10:40:53;103538.91;;;1.42;72.28
13952;BME280;39535;52.192;9.886;2023-02-08T10:43:26;103536.03;;;1.63;73.12
13952;BME280;39535;52.192;9.886;2023-02-08T10:45:59;103523.63;;;1.70;72.98
13952;BME280;39535;52.192;9.886;2023-02-08T10:48:40;103518.59;;;1.72;73.46
13952;BME280;39535;52.192;9.886;2023-02-08T10:51:10;103501.88;;;1.78;73.45
13952;BME280;39535;52.192;9.886;2023-02-08T10:53:40;103507.69;;;1.76;72.15
13952;BME280;39535;52.192;9.886;2023-02-08T10:56:21;103548.09;;;1.64;70.03
13952;BME280;39535;52.192;9.886;2023-02-08T10:58:53;103583.41;;;1.53;69.74
13952;BME280;39535;52.192;9.886;2023-02-08T11:01:20;103613.06;;;1.48;70.40
13952;BME280;39535;52.192;9.886;2023-02-08T11:04:03;103612.66;;;1.42;69.92
13952;BME280;39535;52.192;9.886;2023-02-08T11:06:29;103613.22;;;1.37;69.94
13952;BME280;39535;52.192;9.886;2023-02-08T11:08:56;103613.56;;;1.30;70.28
13952;BME280;39535;52.192;9.886;2023-02-08T11:11:23;103613.38;;;1.27;70.35
13952;BME280;39535;52.192;9.886;2023-02-08T11:13:51;103611.09;;;1.32;71.63
13952;BME280;39535;52.192;9.886;2023-02-08T11:16:20;103580.31;;;1.45;72.80
13952;BME280;39535;52.192;9.886;2023-02-08T11:18:49;103522.28;;;1.50;71.67
13952;BME280;39535;52.192;9.886;2023-02-08T11:21:23;103509.00;;;1.69;73.49
13952;BME280;39535;52.192;9.886;2023-02-08T11:23:53;103491.19;;;1.86;73.41
13952;BME280;39535;52.192;9.886;2023-02-08T11:26:23;103465.63;;;2.02;73.61
13952;BME280;39535;52.192;9.886;2023-02-08T11:29:01;103479.13;;;2.11;71.74
13952;BME280;39535;52.192;9.886;2023-02-08T11:31:28;103487.47;;;2.21;71.45
13952;BME280;39535;52.192;9.886;2023-02-08T11:34:01;103496.84;;;2.33;71.37
13952;BME280;39535;52.192;9.886;2023-02-08T11:36:31;103494.06;;;2.44;70.02
13952;BME280;39535;52.192;9.886;2023-02-08T11:39:01;103549.31;;;2.21;68.63
13952;BME280;39535;52.192;9.886;2023-02-08T11:41:28;103579.91;;;2.16;67.96
13952;BME280;39535;52.192;9.886;2023-02-08T11:43:58;103607.06;;;2.11;68.54
13952;BME280;39535;52.192;9.886;2023-02-08T11:46:27;103612.69;;;2.05;68.69
13952;BME280;39535;52.192;9.886;2023-02-08T11:48:55;103602.91;;;2.13;68.88
13952;BME280;39535;52.192;9.886;2023-02-08T11:51:28;103620.66;;;2.08;68.48
13952;BME280;39535;52.192;9.886;2023-02-08T11:53:56;103625.28;;;2.14;68.13
13952;BME280;39535;52.192;9.886;2023-02-08T11:56:26;103616.09;;;2.17;68.15
13952;BME280;39535;52.192;9.886;2023-02-08T11:58:59;103632.88;;;2.24;67.52
13952;BME280;39535;52.192;9.886;2023-02-08T12:01:28;103639.09;;;2.28;67.10
13952;BME280;39535;52.192;9.886;2023-02-08T12:03:57;103660.94;;;2.33;66.06
13952;BME280;39535;52.192;9.886;2023-02-08T12:06:53;103676.13;;;2.42;66.08
13952;BME280;39535;52.192;9.886;2023-02-08T12:09:36;103715.63;;;2.54;65.46
13952;BME280;39535;52.192;9.886;2023-02-08T12:12:12;103733.03;;;2.70;65.13
13952;BME280;39535;52.192;9.886;2023-02-08T12:14:50;103754.00;;;2.88;63.67
13952;BME280;39535;52.192;9.886;2023-02-08T12:17:37;103780.72;;;3.02;63.52
13952;BME280;39535;52.192;9.886;2023-02-08T12:20:37;103790.75;;;3.50;62.01
13952;BME280;39535;52.192;9.886;2023-02-08T12:23:25;103840.50;;;3.74;60.47
13952;BME280;39535;52.192;9.886;2023-02-08T12:26:08;103872.69;;;3.93;59.84
13952;BME280;39535;52.192;9.886;2023-02-08T12:28:45;103903.66;;;4.33;59.54
13952;BME280;39535;52.192;9.886;2023-02-08T12:31:21;103918.56;;;4.93;58.86
13952;BME280;39535;52.192;9.886;2023-02-08T12:33:59;103930.97;;;5.72;57.58
13952;BME280;39535;52.192;9.886;2023-02-08T12:36:35;103955.63;;;6.41;55.32
13952;BME280;39535;52.192;9.886;2023-02-08T12:39:21;104020.28;;;6.84;53.33
13952;BME280;39535;52.192;9.886;2023-02-08T12:42:22;104068.94;;;7.36;52.22
13952;BME280;39535;52.192;9.886;2023-02-08T12:45:07;104118.66;;;7.75;53.54
13952;BME280;39535;52.192;9.886;2023-02-08T12:47:45;104103.97;;;8.62;49.62
13952;BME280;39535;52.192;9.886;2023-02-08T12:50:20;104168.75;;;9.86;47.79
13952;BME280;39535;52.192;9.886;2023-02-08T12:52:53;104201.44;;;10.79;44.47
13952;BME280;39535;52.192;9.886;2023-02-08T12:55:25;104260.00;;;11.05;44.30
13952;BME280;39535;52.192;9.886;2023-02-08T12:57:56;104344.56;;;10.84;46.82
13952;BME280;39535;52.192;9.886;2023-02-08T13:00:26;104316.91;;;10.49;45.90
13952;BME280;39535;52.192;9.886;2023-02-08T13:02:59;104334.72;;;10.20;47.41
13952;BME280;39535;52.192;9.886;2023-02-08T13:05:36;104316.56;;;9.66;47.57
13952;BME280;39535;52.192;9.886;2023-02-08T13:08:22;104307.03;;;8.95;47.00
13952;BME280;39535;52.192;9.886;2023-02-08T13:10:55;104307.84;;;8.43;48.00